Time;durP1;ratioP1;P1;durP2;ratioP2;P2;SDS_P1;SDS_P2;PMS_P1;PMS_P2;Temp;Humidity;BMP_temperature;BMP_pressure;BME280_temperature;BME280_humidity;BME280_pressure;Samples;Min_cycle;Max_cycle;Signal;HPM_P1;HPM_P2
2021/04/01 00:20:12;;;;;;;8.67;7.73;;;;;;;6.61;100.00;96659.84;1517559;22;20495;-92
2021/04/01 00:26:09;;;;;;;9.20;7.77;;;;;;;6.69;100.00;96648.81;4940444;28;20286;-92
2021/04/01 00:40:51;;;;;;;10.47;7.70;;;;;;;6.74;100.00;96645.81;4828828;29;20713;-92
2021/04/01 00:43:27;;;;;;;9.70;7.43;;;;;;;6.73;100.00;96644.97;4922532;29;20214;-91
2021/04/01 00:46:24;;;;;;;9.83;8.83;;;;;;;6.57;100.00;96640.16;4943941;29;20202;-91
2021/04/01 00:49:00;;;;;;;10.33;8.57;;;;;;;6.66;100.00;96647.25;4953834;29;20249;-90
2021/04/01 01:08:12;;;;;;;8.63;7.73;;;;;;;6.57;100.00;96601.00;4821119;29;20231;-92
2021/04/01 01:10:42;;;;;;;8.90;7.80;;;;;;;6.63;100.00;96599.66;4857509;29;20206;-92
2021/04/01 01:13:09;;;;;;;9.20;8.23;;;;;;;6.73;100.00;96592.75;4871623;29;20206;-94
2021/04/01 01:18:31;;;;;;;10.87;8.27;;;;;;;6.47;100.00;96584.41;4876459;29;20225;-93
2021/04/01 01:20:59;;;;;;;9.23;7.77;;;;;;;6.40;100.00;96576.25;4888922;29;20244;-93
2021/04/01 02:40:58;;;;;;;12.63;9.83;;;;;;;6.62;100.00;96483.94;4787934;30;20267;-92
2021/04/01 02:43:28;;;;;;;12.17;9.00;;;;;;;6.46;100.00;96478.31;4819592;29;20227;-92
2021/04/01 03:26:18;;;;;;;13.67;10.53;;;;;;;6.86;100.00;96467.16;4994700;28;20217;-93
2021/04/01 06:53:31;;;;;;;10.10;8.23;;;;;;;8.10;100.00;96661.28;5011992;28;20220;-94
2021/04/01 07:46:30;;;;;;;8.30;7.50;;;;;;;10.80;100.00;96667.88;4980763;28;20176;-95
2021/04/01 07:49:03;;;;;;;8.90;8.00;;;;;;;10.84;100.00;96668.38;4976881;28;20209;-96
2021/04/01 07:51:57;;;;;;;9.03;7.87;;;;;;;10.28;100.00;96656.31;4968787;28;20212;-95
2021/04/01 07:54:33;;;;;;;9.17;8.07;;;;;;;11.14;100.00;96672.44;4956585;28;20205;-96
2021/04/01 07:57:12;;;;;;;12.23;8.10;;;;;;;10.97;100.00;96671.47;4955200;29;20205;-94
2021/04/01 07:59:56;;;;;;;8.93;8.03;;;;;;;10.49;100.00;96670.03;4964641;29;20209;-94
2021/04/01 08:02:31;;;;;;;9.90;7.63;;;;;;;9.83;100.00;96670.19;4958631;29;20206;-94
2021/04/01 08:04:59;;;;;;;7.37;6.60;;;;;;;10.14;100.00;96663.69;4974083;29;20204;-95
2021/04/01 08:07:31;;;;;;;19.47;12.43;;;;;;;11.23;100.00;96668.91;4957851;29;20285;-95
2021/04/01 08:10:05;;;;;;;10.60;8.70;;;;;;;11.46;100.00;96669.22;4955166;29;20213;-96
2021/04/01 08:12:41;;;;;;;8.17;6.63;;;;;;;12.21;100.00;96655.50;4954960;29;20205;-95
2021/04/01 08:15:12;;;;;;;12.20;8.03;;;;;;;12.89;100.00;96663.25;4954888;29;20256;-94
2021/04/01 08:17:47;;;;;;;8.73;7.83;;;;;;;12.06;100.00;96647.38;4954845;29;20198;-93
2021/04/01 08:20:19;;;;;;;7.90;7.17;;;;;;;11.54;100.00;96655.31;4954659;28;20236;-95
2021/04/01 08:22:56;;;;;;;9.13;8.13;;;;;;;12.11;100.00;96647.72;4958442;29;20634;-95
2021/04/01 08:25:27;;;;;;;6.97;6.27;;;;;;;12.18;100.00;96666.34;4958919;29;20237;-94
2021/04/01 08:28:19;;;;;;;12.30;11.07;;;;;;;12.84;100.00;96662.91;4958829;29;20212;-95
2021/04/01 08:33:42;;;;;;;11.13;6.57;;;;;;;12.71;100.00;96654.63;4958672;29;20568;-93
2021/04/01 08:36:10;;;;;;;9.80;7.37;;;;;;;13.23;100.00;96654.34;4958492;29;20285;-95
2021/04/01 08:38:40;;;;;;;6.53;5.90;;;;;;;13.97;100.00;96663.84;4958341;29;20204;-93
2021/04/01 08:41:23;;;;;;;10.67;7.67;;;;;;;14.32;100.00;96647.69;4958142;29;20739;-91
2021/04/01 08:44:07;;;;;;;9.83;8.80;;;;;;;14.29;100.00;96643.56;4958407;29;20211;-91
2021/04/01 08:46:45;;;;;;;12.00;9.73;;;;;;;14.11;100.00;96653.56;4958208;29;20659;-93
2021/04/01 08:49:31;;;;;;;8.97;7.63;;;;;;;13.95;100.00;96660.53;4958393;29;20190;-92
2021/04/01 08:52:30;;;;;;;8.30;6.30;;;;;;;13.96;100.00;96646.34;4960575;28;20588;-93
2021/04/01 08:55:05;;;;;;;9.00;6.90;;;;;;;14.06;100.00;96634.72;4967148;28;20293;-92
2021/04/01 08:57:46;;;;;;;8.43;7.63;;;;;;;14.89;100.00;96637.59;4977167;28;20638;-90
2021/04/01 09:00:15;;;;;;;9.73;6.33;;;;;;;15.04;100.00;96642.97;4977163;28;20217;-90
2021/04/01 09:02:50;;;;;;;7.60;5.73;;;;;;;14.74;100.00;96645.47;4977193;28;20203;-91
2021/04/01 09:05:19;;;;;;;7.97;7.27;;;;;;;15.06;100.00;96634.84;4977427;28;20216;-90
2021/04/01 09:07:49;;;;;;;14.63;8.73;;;;;;;13.71;100.00;96640.28;4977088;28;20256;-94
2021/04/01 09:10:20;;;;;;;8.87;7.17;;;;;;;14.34;100.00;96635.09;4977083;28;20224;-95
2021/04/01 09:12:53;;;;;;;9.00;7.10;;;;;;;14.73;100.00;96630.59;4977291;28;20252;-93
2021/04/01 09:15:31;;;;;;;8.03;7.10;;;;;;;14.52;100.00;96629.59;4977272;28;20247;-91
2021/04/01 09:17:59;;;;;;;8.27;7.47;;;;;;;14.86;100.00;96627.38;4977380;28;20288;-91
2021/04/01 09:20:27;;;;;;;8.70;7.90;;;;;;;14.72;100.00;96626.31;4977178;28;20311;-92
2021/04/01 09:22:56;;;;;;;10.03;7.47;;;;;;;14.46;100.00;96628.44;4976867;28;20232;-93
2021/04/01 09:25:37;;;;;;;11.13;6.90;;;;;;;14.23;100.00;96626.53;4976786;28;20761;-94
2021/04/01 09:28:06;;;;;;;7.07;6.40;;;;;;;14.71;100.00;96615.91;4976993;28;20583;-92
2021/04/01 09:30:34;;;;;;;9.30;7.50;;;;;;;14.66;100.00;96610.31;4976669;28;20643;-92
2021/04/01 09:33:09;;;;;;;8.77;7.57;;;;;;;15.01;100.00;96618.69;4976445;28;20264;-91
2021/04/01 09:35:36;;;;;;;6.70;6.00;;;;;;;15.15;100.00;96610.78;4976720;28;20702;-91
2021/04/01 09:38:07;;;;;;;9.13;7.40;;;;;;;15.05;100.00;96609.38;4976693;28;20201;-91
2021/04/01 09:40:37;;;;;;;10.37;7.57;;;;;;;15.31;100.00;96609.81;4976500;28;20225;-92
2021/04/01 09:43:13;;;;;;;6.83;6.20;;;;;;;15.17;100.00;96610.56;4976617;28;20252;-92
2021/04/01 09:45:40;;;;;;;12.53;7.03;;;;;;;16.41;100.00;96596.63;4976516;28;20200;-91
2021/04/01 09:48:09;;;;;;;6.00;5.37;;;;;;;15.34;100.00;96608.59;4976449;28;20236;-91
2021/04/01 09:50:38;;;;;;;6.53;5.90;;;;;;;16.16;100.00;96601.44;4976474;28;20208;-91
2021/04/01 09:53:11;;;;;;;6.80;5.97;;;;;;;17.03;100.00;96602.38;4966561;28;20704;-91
2021/04/01 09:55:40;;;;;;;7.70;5.67;;;;;;;17.39;100.00;96593.47;4965269;28;20206;-91
2021/04/01 09:58:24;;;;;;;11.13;6.27;;;;;;;16.86;100.00;96592.00;4956409;29;20249;-91
2021/04/01 10:01:10;;;;;;;7.53;6.73;;;;;;;17.23;100.00;96582.13;4955760;29;20232;-91
2021/04/01 10:03:45;;;;;;;7.47;6.67;;;;;;;17.40;100.00;96582.66;4956959;29;20205;-90
2021/04/01 10:06:34;;;;;;;8.00;6.97;;;;;;;16.81;100.00;96580.34;4956833;29;20202;-91
2021/04/01 10:09:13;;;;;;;8.23;7.40;;;;;;;16.50;100.00;96570.81;4956899;29;20249;-91
2021/04/01 10:11:45;;;;;;;8.90;8.10;;;;;;;16.54;100.00;96563.31;4957135;29;20679;-91
2021/04/01 10:14:13;;;;;;;8.73;8.00;;;;;;;16.75;100.00;96560.69;4956831;29;20231;-91
2021/04/01 10:16:50;;;;;;;8.53;7.63;;;;;;;17.12;100.00;96561.41;4956730;29;20233;-91
2021/04/01 10:19:22;;;;;;;7.90;7.00;;;;;;;16.16;100.00;96568.81;4956464;29;20292;-92
2021/04/01 10:21:49;;;;;;;17.30;13.67;;;;;;;17.65;100.00;96559.09;4956803;29;20250;-91
2021/04/01 10:24:27;;;;;;;9.43;7.77;;;;;;;17.35;100.00;96562.00;4956548;29;20257;-92
2021/04/01 10:26:58;;;;;;;10.40;8.47;;;;;;;17.27;100.00;96548.03;4956380;29;20705;-91
2021/04/01 10:29:38;;;;;;;15.43;10.67;;;;;;;15.98;100.00;96552.47;4956668;29;20191;-92
2021/04/01 10:32:09;;;;;;;7.70;7.00;;;;;;;16.71;100.00;96540.81;4956763;29;20575;-90
2021/04/01 10:34:45;;;;;;;10.47;8.50;;;;;;;16.28;100.00;96546.09;4956294;29;20410;-91
2021/04/01 10:37:14;;;;;;;9.83;7.03;;;;;;;16.47;100.00;96549.16;4956421;29;20226;-91
2021/04/01 10:39:43;;;;;;;6.97;6.30;;;;;;;16.21;100.00;96547.88;4956294;29;20738;-91
2021/04/01 10:42:11;;;;;;;7.37;6.30;;;;;;;16.75;100.00;96550.06;4955721;28;20292;-91
2021/04/01 10:44:40;;;;;;;9.60;8.67;;;;;;;16.60;100.00;96546.63;4955685;28;20646;-91
2021/04/01 10:47:08;;;;;;;6.80;6.17;;;;;;;15.63;100.00;96550.38;4955808;29;20201;-92
2021/04/01 10:49:38;;;;;;;6.90;6.30;;;;;;;16.72;100.00;96545.09;4956240;29;20207;-91
2021/04/01 10:52:06;;;;;;;9.23;8.13;;;;;;;16.47;100.00;96541.19;4957972;28;20217;-91
2021/04/01 10:54:37;;;;;;;12.13;8.00;;;;;;;17.42;100.00;96542.59;4964329;28;20210;-91
2021/04/01 10:57:06;;;;;;;8.10;7.30;;;;;;;17.31;100.00;96547.44;4975100;28;20203;-90
2021/04/01 10:59:37;;;;;;;9.37;7.90;;;;;;;17.55;100.00;96543.50;4975197;28;20671;-90
2021/04/01 11:02:11;;;;;;;8.73;6.70;;;;;;;17.01;100.00;96540.69;4975107;28;20234;-91
2021/04/01 11:04:41;;;;;;;11.33;6.70;;;;;;;16.86;100.00;96524.81;4975174;28;20237;-91
2021/04/01 11:07:09;;;;;;;12.17;7.23;;;;;;;15.93;100.00;96522.06;4974998;28;20245;-91
2021/04/01 11:09:36;;;;;;;8.10;7.30;;;;;;;15.24;100.00;96521.50;4977111;28;20211;-93
2021/04/01 11:12:15;;;;;;;8.73;7.83;;;;;;;15.73;100.00;96528.94;4974845;28;20287;-91
2021/04/01 11:14:45;;;;;;;7.47;6.80;;;;;;;15.37;100.00;96521.66;4974979;28;20189;-93
2021/04/01 11:17:15;;;;;;;10.13;7.10;;;;;;;15.44;100.00;96516.47;4976432;28;20662;-94
2021/04/01 11:19:45;;;;;;;9.70;8.20;;;;;;;15.62;100.00;96516.09;4975274;28;20205;-92
2021/04/01 11:22:12;;;;;;;8.23;7.43;;;;;;;15.07;100.00;96520.84;4974553;28;20235;-93
2021/04/01 11:24:40;;;;;;;9.50;8.50;;;;;;;14.68;100.00;96511.25;4974695;28;20201;-94
2021/04/01 11:27:08;;;;;;;13.00;8.03;;;;;;;15.08;100.00;96508.44;4975167;28;20284;-93
2021/04/01 11:29:36;;;;;;;8.83;7.10;;;;;;;15.36;100.00;96516.56;4975466;28;20205;-95
2021/04/01 11:32:18;;;;;;;7.87;7.17;;;;;;;15.80;100.00;96507.81;4974532;28;20292;-93
2021/04/01 11:34:47;;;;;;;11.10;7.73;;;;;;;16.66;100.00;96503.41;4974489;28;20234;-91
2021/04/01 11:37:18;;;;;;;9.97;7.37;;;;;;;16.65;100.00;96496.44;4974795;28;20194;-90
2021/04/01 11:39:46;;;;;;;10.47;7.53;;;;;;;16.44;100.00;96494.63;4974523;28;20202;-90
2021/04/01 11:42:16;;;;;;;8.60;7.80;;;;;;;16.44;100.00;96493.81;4974054;28;20326;-91
2021/04/01 11:44:44;;;;;;;8.40;7.53;;;;;;;15.92;100.00;96496.53;4974361;28;20237;-91
2021/04/01 11:47:16;;;;;;;11.20;8.47;;;;;;;16.29;100.00;96492.03;4974298;28;20701;-91
2021/04/01 11:49:43;;;;;;;12.30;7.87;;;;;;;15.92;100.00;96495.72;4974273;28;20761;-91
2021/04/01 11:52:11;;;;;;;10.87;8.60;;;;;;;15.95;100.00;96498.00;4970986;28;20255;-90
2021/04/01 11:54:39;;;;;;;8.97;7.13;;;;;;;16.07;100.00;96490.38;4965724;28;20583;-91
2021/04/01 11:57:17;;;;;;;8.53;7.73;;;;;;;16.12;100.00;96495.94;4973285;28;20242;-90
2021/04/01 11:59:55;;;;;;;11.30;8.23;;;;;;;16.07;100.00;96488.56;4974249;28;20194;-90
2021/04/01 12:02:23;;;;;;;8.27;7.10;;;;;;;16.69;100.00;96483.63;4974443;28;20216;-90
2021/04/01 12:04:53;;;;;;;9.80;7.53;;;;;;;16.76;100.00;96482.69;4974330;28;20211;-91
2021/04/01 12:07:21;;;;;;;8.07;7.20;;;;;;;16.14;100.00;96480.66;4974141;28;20266;-91
2021/04/01 12:09:50;;;;;;;7.17;6.57;;;;;;;16.05;100.00;96474.66;4974235;28;20691;-90
2021/04/01 12:12:30;;;;;;;8.23;7.10;;;;;;;15.83;100.00;96467.66;4973930;28;20202;-90
2021/04/01 12:14:57;;;;;;;7.63;6.93;;;;;;;16.31;100.00;96466.13;4974184;28;20232;-90
2021/04/01 12:17:35;;;;;;;7.73;7.03;;;;;;;16.38;100.00;96469.69;4973852;28;20285;-90
2021/04/01 12:20:09;;;;;;;10.40;7.07;;;;;;;16.30;100.00;96469.00;4973805;28;20288;-90
2021/04/01 12:22:39;;;;;;;7.47;6.23;;;;;;;16.81;100.00;96460.88;4974181;28;20199;-91
2021/04/01 12:25:09;;;;;;;7.87;6.47;;;;;;;16.40;100.00;96448.28;4974316;28;20318;-90
2021/04/01 12:27:36;;;;;;;7.73;6.03;;;;;;;16.27;100.00;96448.97;4973931;28;20588;-89
2021/04/01 12:30:04;;;;;;;8.43;6.57;;;;;;;16.36;100.00;96445.19;4974050;28;20234;-91
2021/04/01 12:32:32;;;;;;;9.17;6.53;;;;;;;16.50;100.00;96443.47;4974405;28;20235;-90
2021/04/01 12:35:08;;;;;;;8.63;6.53;;;;;;;16.70;100.00;96437.50;4973837;28;20656;-90
2021/04/01 12:37:35;;;;;;;8.40;7.00;;;;;;;16.44;100.00;96435.44;4974052;28;20743;-91
2021/04/01 12:40:17;;;;;;;7.43;6.47;;;;;;;16.54;100.00;96433.28;4973675;28;20198;-91
2021/04/01 12:42:45;;;;;;;8.03;6.83;;;;;;;16.73;100.00;96426.47;4973535;28;20236;-90
2021/04/01 12:45:23;;;;;;;6.67;6.00;;;;;;;16.74;100.00;96429.00;4973618;28;20199;-91
2021/04/01 12:47:53;;;;;;;15.60;11.63;;;;;;;17.11;100.00;96421.66;4973911;28;20199;-90
2021/04/01 12:50:20;;;;;;;11.63;9.53;;;;;;;17.51;100.00;96414.69;4973828;28;20246;-90
2021/04/01 12:52:52;;;;;;;9.07;7.17;;;;;;;16.70;100.00;96422.41;4966758;28;20210;-91
2021/04/01 12:55:32;;;;;;;7.93;7.13;;;;;;;17.23;100.00;96411.31;4961303;28;20212;-90
2021/04/01 12:57:59;;;;;;;10.53;9.33;;;;;;;16.66;100.00;96415.84;4954552;29;20192;-91
2021/04/01 13:00:33;;;;;;;11.17;9.27;;;;;;;16.41;100.00;96418.88;4954314;29;20204;-92
2021/04/01 13:03:00;;;;;;;8.93;7.73;;;;;;;16.29;100.00;96409.00;4954385;29;20196;-92
2021/04/01 13:05:27;;;;;;;8.27;6.73;;;;;;;17.15;100.00;96398.22;4954223;29;20196;-91
2021/04/01 13:08:07;;;;;;;6.40;5.80;;;;;;;17.10;100.00;96404.91;4956123;28;20204;-90
2021/04/01 13:10:41;;;;;;;6.67;5.90;;;;;;;17.01;100.00;96402.63;4957847;29;20211;-91
2021/04/01 13:13:09;;;;;;;6.40;5.40;;;;;;;16.30;100.00;96402.69;4957999;29;20275;-91
2021/04/01 13:15:35;;;;;;;11.57;6.47;;;;;;;15.96;100.00;96398.06;4958494;29;20211;-91
2021/04/01 13:18:03;;;;;;;8.10;6.43;;;;;;;15.93;100.00;96396.63;4957922;29;20199;-91
2021/04/01 13:20:30;;;;;;;7.47;5.67;;;;;;;15.55;100.00;96403.94;4957856;29;20281;-91
2021/04/01 13:23:11;;;;;;;6.93;5.50;;;;;;;15.61;100.00;96397.88;4957789;29;20650;-92
2021/04/01 13:25:39;;;;;;;6.57;5.67;;;;;;;15.95;100.00;96399.09;4957475;29;20230;-91
2021/04/01 13:28:07;;;;;;;4.80;4.40;;;;;;;16.04;100.00;96393.50;4957353;29;20202;-90
2021/04/01 13:30:35;;;;;;;5.27;4.77;;;;;;;16.00;100.00;96392.19;4957711;29;20238;-91
2021/04/01 13:33:08;;;;;;;6.37;5.73;;;;;;;16.53;100.00;96386.56;4957284;29;20286;-90
2021/04/01 13:35:39;;;;;;;5.00;4.43;;;;;;;15.84;100.00;96392.47;4957281;29;20190;-90
2021/04/01 13:38:09;;;;;;;5.50;5.00;;;;;;;16.39;100.00;96391.75;4957709;29;20192;-91
2021/04/01 13:40:40;;;;;;;6.50;4.90;;;;;;;16.87;100.00;96383.13;4957320;29;20583;-90
2021/04/01 13:43:09;;;;;;;5.50;4.73;;;;;;;17.01;100.00;96378.72;4956962;28;20243;-91
2021/04/01 13:45:36;;;;;;;8.40;5.40;;;;;;;16.74;100.00;96383.88;4957384;29;20259;-90
2021/04/01 13:48:04;;;;;;;8.60;5.47;;;;;;;16.67;100.00;96393.59;4957343;29;20204;-90
2021/04/01 13:50:32;;;;;;;6.10;4.30;;;;;;;16.54;100.00;96388.19;4958075;29;20214;-90
2021/04/01 13:53:09;;;;;;;9.80;5.20;;;;;;;15.97;100.00;96389.09;4961874;28;20261;-90
2021/04/01 13:55:37;;;;;;;5.73;4.77;;;;;;;16.35;100.00;96379.88;4970624;28;20221;-90
2021/04/01 14:03:42;;;;;;;5.17;4.67;;;;;;;15.38;100.00;96376.84;4975625;28;20311;-93
2021/04/01 14:04:16;;;;;;;5.27;4.77;;;;;;;15.87;100.00;96381.50;4976063;28;20216;-90
2021/04/01 14:09:32;;;;;;;6.53;5.77;;;;;;;15.71;100.00;96382.53;4976182;28;20228;-90
2021/04/01 14:12:01;;;;;;;8.70;5.20;;;;;;;15.73;100.00;96372.59;4975967;28;20205;-91
2021/04/01 14:14:29;;;;;;;5.80;4.40;;;;;;;15.53;100.00;96382.94;4975733;28;20210;-91
2021/04/01 14:16:57;;;;;;;9.67;7.27;;;;;;;16.09;100.00;96372.50;4975797;28;20321;-91
2021/04/01 14:19:26;;;;;;;6.27;5.27;;;;;;;16.08;100.00;96378.03;4974906;28;20237;-89
2021/04/01 14:21:55;;;;;;;7.67;6.43;;;;;;;15.55;100.00;96378.28;4975908;28;20323;-91
2021/04/01 14:24:26;;;;;;;12.53;9.37;;;;;;;15.80;100.00;96375.31;4975850;28;20203;-91
2021/04/01 14:27:02;;;;;;;13.90;8.00;;;;;;;15.59;100.00;96384.03;4975687;28;20235;-91
2021/04/01 14:29:29;;;;;;;12.47;6.63;;;;;;;15.52;100.00;96383.94;4975597;28;20193;-91
2021/04/01 14:31:57;;;;;;;14.23;8.57;;;;;;;15.73;100.00;96380.53;4975558;28;20256;-89
2021/04/01 14:34:25;;;;;;;10.50;7.83;;;;;;;15.85;100.00;96388.81;4975536;28;20216;-89
2021/04/01 14:36:56;;;;;;;13.57;9.83;;;;;;;15.80;100.00;96383.25;4975507;28;20284;-91
2021/04/01 14:39:25;;;;;;;11.63;7.47;;;;;;;16.04;100.00;96382.06;4975593;28;20202;-91
2021/04/01 14:41:57;;;;;;;5.97;4.87;;;;;;;16.32;100.00;96387.41;4975826;28;20254;-91
2021/04/01 14:44:25;;;;;;;5.63;5.07;;;;;;;15.85;100.00;96386.16;4975402;28;20236;-89
2021/04/01 14:46:52;;;;;;;6.10;5.30;;;;;;;15.72;100.00;96386.81;4972160;28;20213;-91
2021/04/01 14:49:20;;;;;;;6.83;4.57;;;;;;;14.92;100.00;96391.13;4975088;28;20291;-91
2021/04/01 14:51:48;;;;;;;5.37;4.87;;;;;;;14.97;100.00;96382.66;4975424;28;20656;-91
2021/04/01 14:54:17;;;;;;;5.87;4.80;;;;;;;14.33;100.00;96392.84;4975411;28;20192;-95
2021/04/01 14:56:47;;;;;;;5.07;4.33;;;;;;;14.20;100.00;96390.81;4975436;28;20216;-94
2021/04/01 14:59:17;;;;;;;7.87;5.00;;;;;;;14.49;100.00;96392.72;4976112;28;20268;-92
2021/04/01 15:01:45;;;;;;;6.47;5.37;;;;;;;14.70;100.00;96386.75;4975336;28;20666;-91
2021/04/01 15:04:13;;;;;;;7.63;5.10;;;;;;;15.01;100.00;96377.81;4975287;28;20201;-91
2021/04/01 15:06:42;;;;;;;13.43;10.47;;;;;;;15.21;100.00;96385.00;4975008;28;20266;-91
2021/04/01 15:09:12;;;;;;;7.17;4.80;;;;;;;15.50;100.00;96383.31;4974920;28;20211;-91
2021/04/01 15:11:39;;;;;;;7.00;4.33;;;;;;;14.83;100.00;96392.22;4974984;28;20197;-90
2021/04/01 15:14:08;;;;;;;6.70;4.40;;;;;;;14.17;100.00;96394.66;4974753;28;20201;-92
2021/04/01 15:16:37;;;;;;;8.03;3.77;;;;;;;14.31;100.00;96387.75;4974828;28;20212;-92
2021/04/01 15:19:04;;;;;;;10.53;7.70;;;;;;;14.40;100.00;96399.06;4974118;28;20197;-92
2021/04/01 15:21:32;;;;;;;9.33;8.27;;;;;;;14.49;100.00;96398.81;4974466;28;20225;-90
2021/04/01 15:23:59;;;;;;;5.73;4.90;;;;;;;14.48;100.00;96397.19;4974900;28;20580;-91
2021/04/01 15:26:26;;;;;;;4.37;3.97;;;;;;;13.70;100.00;96398.28;4974554;28;20205;-95
2021/04/01 15:28:53;;;;;;;3.60;3.27;;;;;;;13.47;100.00;96398.25;4974410;28;20205;-94
2021/04/01 15:31:20;;;;;;;7.80;4.97;;;;;;;13.85;100.00;96389.59;4974197;28;20211;-90
2021/04/01 15:33:47;;;;;;;8.33;3.47;;;;;;;14.15;100.00;96387.88;4974570;28;20209;-91
2021/04/01 15:36:14;;;;;;;4.37;3.97;;;;;;;13.67;100.00;96398.63;4974654;28;20232;-92
2021/04/01 15:38:41;;;;;;;4.00;3.57;;;;;;;13.31;100.00;96393.88;4974608;28;20600;-94
2021/04/01 15:41:10;;;;;;;4.30;3.33;;;;;;;12.99;100.00;96393.97;4974396;28;20227;-94
2021/04/01 15:43:37;;;;;;;5.73;4.80;;;;;;;13.44;100.00;96393.31;4973998;28;20319;-92
2021/04/01 15:46:04;;;;;;;12.30;8.80;;;;;;;13.61;100.00;96390.56;4974431;28;20305;-93
2021/04/01 15:48:31;;;;;;;9.57;8.53;;;;;;;13.79;100.00;96383.22;4974298;28;20196;-93
2021/04/01 15:50:58;;;;;;;15.43;12.40;;;;;;;13.97;100.00;96385.56;4974397;28;20662;-92
2021/04/01 15:53:25;;;;;;;31.90;20.83;;;;;;;13.81;100.00;96381.19;4974131;28;20197;-91
2021/04/01 15:55:52;;;;;;;9.83;8.67;;;;;;;13.76;100.00;96388.84;4974134;28;20741;-92
2021/04/01 15:58:19;;;;;;;11.37;5.47;;;;;;;13.66;100.00;96385.59;4974038;28;20196;-91
2021/04/01 16:00:46;;;;;;;9.63;6.03;;;;;;;13.65;100.00;96392.69;4974065;28;20211;-92
2021/04/01 16:03:17;;;;;;;5.80;4.80;;;;;;;13.48;100.00;96389.34;4984056;28;20272;-91
2021/04/01 16:05:44;;;;;;;9.57;5.93;;;;;;;13.03;100.00;96385.56;4977417;28;20313;-91
2021/04/01 16:08:11;;;;;;;10.00;7.63;;;;;;;13.29;100.00;96392.38;4974430;28;20256;-91
2021/04/01 16:10:37;;;;;;;8.10;7.00;;;;;;;13.07;100.00;96397.41;4973871;28;20196;-92
2021/04/01 16:13:06;;;;;;;15.27;6.90;;;;;;;12.80;100.00;96384.63;4973952;28;20205;-94
2021/04/01 16:15:34;;;;;;;11.00;7.17;;;;;;;12.40;100.00;96389.03;4973959;28;20193;-96
2021/04/01 16:18:01;;;;;;;14.83;12.27;;;;;;;12.43;100.00;96393.94;4974153;28;20206;-94
2021/04/01 16:20:28;;;;;;;13.07;10.60;;;;;;;12.48;100.00;96386.38;4974058;28;20670;-94
2021/04/01 16:22:57;;;;;;;15.73;13.10;;;;;;;12.51;100.00;96390.47;4974027;28;20228;-94
2021/04/01 16:25:24;;;;;;;13.33;11.43;;;;;;;12.48;100.00;96391.63;4973989;28;20201;-92
2021/04/01 16:27:50;;;;;;;14.23;11.40;;;;;;;12.65;100.00;96383.69;4974221;28;20193;-92
2021/04/01 16:30:18;;;;;;;12.50;9.53;;;;;;;12.63;100.00;96381.22;4973803;28;20204;-91
2021/04/01 16:32:47;;;;;;;7.13;5.97;;;;;;;12.43;100.00;96387.84;4973715;28;20204;-91
2021/04/01 16:35:15;;;;;;;10.37;8.67;;;;;;;12.23;100.00;96388.22;4973864;28;20204;-93
2021/04/01 16:37:42;;;;;;;23.07;13.13;;;;;;;12.07;100.00;96383.75;4974165;28;20262;-92
2021/04/01 16:40:12;;;;;;;12.47;8.77;;;;;;;11.87;100.00;96388.50;4973897;28;20205;-89
2021/04/01 16:42:40;;;;;;;36.10;24.43;;;;;;;11.82;100.00;96395.25;4975208;28;20284;-92
2021/04/01 16:45:08;;;;;;;19.47;16.70;;;;;;;11.80;100.00;96395.41;4977545;28;20247;-93
2021/04/01 16:47:35;;;;;;;27.87;19.93;;;;;;;11.74;100.00;96397.84;4977693;28;20208;-92
2021/04/01 16:50:04;;;;;;;29.23;21.17;;;;;;;11.72;100.00;96398.03;4977640;28;20201;-93
2021/04/01 16:52:33;;;;;;;29.20;20.90;;;;;;;11.76;100.00;96401.97;4977465;28;20587;-92
2021/04/01 16:55:02;;;;;;;11.40;9.33;;;;;;;11.81;100.00;96401.47;4977389;28;20262;-93
2021/04/01 16:57:29;;;;;;;15.10;9.03;;;;;;;11.50;100.00;96402.09;4977447;28;20207;-92
2021/04/01 16:59:58;;;;;;;8.53;5.97;;;;;;;11.48;100.00;96398.81;4977797;28;20213;-92
2021/04/01 17:02:24;;;;;;;7.50;5.77;;;;;;;11.33;100.00;96397.78;4977376;28;20225;-92
2021/04/01 17:04:52;;;;;;;14.13;8.63;;;;;;;11.44;100.00;96392.22;4959000;28;20213;-92
2021/04/01 17:07:19;;;;;;;8.13;6.93;;;;;;;11.38;100.00;96401.56;4957850;29;20260;-91
2021/04/01 17:09:46;;;;;;;38.50;27.27;;;;;;;10.99;100.00;96403.06;4957921;29;20748;-92
2021/04/01 17:12:13;;;;;;;43.13;28.37;;;;;;;10.95;100.00;96403.38;4957849;29;20206;-92
2021/04/01 17:14:40;;;;;;;11.77;8.70;;;;;;;11.01;100.00;96401.91;4957986;29;20206;-93
2021/04/01 17:17:07;;;;;;;51.30;27.60;;;;;;;10.88;100.00;96407.63;4957680;29;20675;-91
2021/04/01 17:19:34;;;;;;;8.77;7.00;;;;;;;10.98;100.00;96409.28;4957593;29;20259;-92
2021/04/01 17:22:00;;;;;;;10.83;5.83;;;;;;;10.74;100.00;96410.84;4957597;29;20217;-94
2021/04/01 17:24:28;;;;;;;12.83;8.60;;;;;;;10.82;100.00;96416.13;4957502;29;20202;-93
2021/04/01 17:26:55;;;;;;;16.20;13.27;;;;;;;10.64;100.00;96415.38;4957831;29;20689;-93
2021/04/01 17:29:22;;;;;;;9.57;8.60;;;;;;;10.58;100.00;96422.06;4968502;28;20213;-92
2021/04/01 17:31:48;;;;;;;9.23;6.93;;;;;;;10.36;100.00;96414.72;4976601;28;20670;-92
2021/04/01 17:34:15;;;;;;;5.43;4.93;;;;;;;10.29;100.00;96411.03;4976774;28;20244;-94
2021/04/01 17:36:43;;;;;;;8.40;5.20;;;;;;;10.50;100.00;96410.72;4976817;28;20193;-92
2021/04/01 17:39:09;;;;;;;6.70;4.27;;;;;;;10.40;100.00;96423.94;4976810;28;20248;-93
2021/04/01 17:41:37;;;;;;;4.30;3.77;;;;;;;10.38;100.00;96420.63;4976495;28;20325;-93
2021/04/01 17:44:04;;;;;;;4.70;4.23;;;;;;;10.17;100.00;96421.75;4976696;28;20244;-93
2021/04/01 17:46:31;;;;;;;12.53;11.17;;;;;;;10.09;100.00;96426.13;4976470;28;20189;-93
2021/04/01 17:48:58;;;;;;;17.87;15.83;;;;;;;9.95;100.00;96422.22;4975904;28;20216;-93
2021/04/01 17:51:24;;;;;;;6.00;5.40;;;;;;;10.05;100.00;96422.97;4976365;28;20198;-93
2021/04/01 17:53:51;;;;;;;12.47;10.57;;;;;;;9.87;100.00;96432.63;4976302;28;20207;-93
2021/04/01 17:56:18;;;;;;;7.97;6.13;;;;;;;9.96;100.00;96429.13;4976338;28;20208;-92
2021/04/01 17:58:48;;;;;;;6.50;5.90;;;;;;;10.08;100.00;96425.31;4976447;28;20197;-93
2021/04/01 18:01:18;;;;;;;4.30;4.00;;;;;;;10.03;100.00;96427.53;4976349;28;20236;-92
2021/04/01 18:25:47;;;;;;;5.07;4.67;;;;;;;9.61;100.00;96435.19;4976889;28;20260;-95
2021/04/01 18:28:16;;;;;;;7.53;5.83;;;;;;;9.56;100.00;96425.16;4975731;28;20233;-95
2021/04/01 18:30:46;;;;;;;6.03;3.73;;;;;;;9.43;100.00;96420.25;4968823;28;20201;-95
2021/04/01 18:33:16;;;;;;;3.70;3.37;;;;;;;9.25;100.00;96433.34;4956301;29;20205;-96
2021/04/01 18:35:49;;;;;;;12.23;9.03;;;;;;;9.17;100.00;96433.22;4956414;29;20208;-95
2021/04/01 18:38:17;;;;;;;7.00;6.00;;;;;;;9.04;100.00;96424.91;4956528;29;20599;-94
2021/04/01 18:40:46;;;;;;;6.73;5.90;;;;;;;8.98;100.00;96430.72;4956534;29;20200;-96
2021/04/01 18:43:13;;;;;;;9.70;6.40;;;;;;;9.24;100.00;96425.59;4955882;28;20225;-96
2021/04/01 18:45:42;;;;;;;4.33;3.87;;;;;;;9.25;100.00;96425.47;4955949;29;20198;-95
2021/04/01 18:48:14;;;;;;;7.00;5.90;;;;;;;9.24;100.00;96426.41;4955567;29;20202;-95
2021/04/01 18:50:43;;;;;;;39.73;24.10;;;;;;;9.04;100.00;96428.34;4973678;28;20197;-96
2021/04/01 18:53:18;;;;;;;25.37;17.40;;;;;;;9.09;100.00;96421.81;4975288;28;20245;-96
2021/04/01 18:58:35;;;;;;;5.17;3.40;;;;;;;8.53;100.00;96424.38;4974657;28;20280;-96
2021/04/01 19:01:03;;;;;;;7.33;3.73;;;;;;;8.64;100.00;96417.31;4974883;28;20201;-95
2021/04/01 19:03:34;;;;;;;5.33;4.07;;;;;;;8.70;100.00;96420.19;4975140;28;20197;-95
2021/04/01 19:06:03;;;;;;;9.87;6.00;;;;;;;8.64;100.00;96422.56;4974684;28;20724;-95
2021/04/01 19:08:38;;;;;;;13.40;8.93;;;;;;;8.47;100.00;96426.72;4974992;28;20715;-94
2021/04/01 19:22:21;;;;;;;14.97;10.93;;;;;;;8.45;100.00;96418.19;4974979;28;20287;-96
2021/04/01 19:24:51;;;;;;;13.23;11.87;;;;;;;8.55;100.00;96417.19;4975201;28;20205;-95
2021/04/01 19:27:20;;;;;;;19.63;13.23;;;;;;;8.41;100.00;96420.25;4974947;28;20617;-95
2021/04/01 19:29:48;;;;;;;24.80;14.83;;;;;;;8.36;100.00;96417.22;4976448;28;20208;-94